Time;durP1;ratioP1;P1;durP2;ratioP2;P2;SDS_P1;SDS_P2;PMS_P1;PMS_P2;Temp;Humidity;BMP_temperature;BMP_pressure;BME280_temperature;BME280_humidity;BME280_pressure;Samples;Min_cycle;Max_cycle;Signal;HPM_P1;HPM_P2
2023/10/15 00:00:16;;;;;;;;;;;14.50;99.90;;;;;;4972633;28;19945;-71
2023/10/15 00:02:42;;;;;;;;;;;14.50;99.90;;;;;;4961433;28;19910;-72
2023/10/15 00:05:12;;;;;;;;;;;14.50;99.90;;;;;;4968415;28;20419;-71
2023/10/15 00:07:38;;;;;;;;;;;14.40;99.90;;;;;;4962819;28;19949;-71
2023/10/15 00:10:10;;;;;;;;;;;14.40;99.90;;;;;;4967081;28;20413;-71
2023/10/15 00:12:37;;;;;;;;;;;14.30;99.90;;;;;;4966087;28;20313;-71
2023/10/15 00:15:04;;;;;;;;;;;14.30;99.90;;;;;;4967372;28;20001;-71
2023/10/15 00:17:30;;;;;;;;;;;14.30;99.90;;;;;;4962271;28;19910;-71
2023/10/15 00:19:55;;;;;;;;;;;14.30;99.90;;;;;;4965834;28;19946;-71
2023/10/15 00:22:21;;;;;;;;;;;14.30;99.90;;;;;;4966450;28;19961;-72
2023/10/15 00:24:47;;;;;;;;;;;14.20;99.90;;;;;;4964640;28;20304;-72
2023/10/15 00:27:12;;;;;;;;;;;14.30;99.90;;;;;;4962772;28;21462;-71
2023/10/15 00:29:38;;;;;;;;;;;14.30;99.90;;;;;;4966679;28;20012;-71
2023/10/15 00:32:04;;;;;;;;;;;14.30;99.90;;;;;;4962188;28;19914;-72
2023/10/15 00:34:30;;;;;;;;;;;14.30;99.90;;;;;;4965413;28;19926;-71
2023/10/15 00:36:56;;;;;;;;;;;14.30;99.90;;;;;;4962055;28;19921;-72
2023/10/15 00:39:21;;;;;;;;;;;14.10;99.90;;;;;;4965155;28;19922;-71
2023/10/15 00:41:47;;;;;;;;;;;14.10;99.90;;;;;;4966209;28;20420;-72
2023/10/15 00:44:14;;;;;;;;;;;14.10;99.90;;;;;;4963349;28;19997;-71
2023/10/15 00:46:40;;;;;;;;;;;14.10;99.90;;;;;;4962829;28;20974;-71
2023/10/15 00:49:10;;;;;;;;;;;14.10;99.90;;;;;;4963175;28;20321;-71
2023/10/15 00:51:41;;;;;;;;;;;14.20;99.90;;;;;;4962027;28;19910;-71
2023/10/15 00:54:11;;;;;;;;;;;14.10;99.90;;;;;;4962287;28;19910;-71
2023/10/15 00:56:38;;;;;;;;;;;14.00;99.90;;;;;;4963913;28;20018;-71
2023/10/15 00:59:43;;;;;;;;;;;14.10;99.90;;;;;;4962781;28;19961;-71
2023/10/15 01:02:12;;;;;;;;;;;14.00;99.90;;;;;;4966577;28;19921;-71
2023/10/15 01:04:35;;;;;;;;;;;14.00;99.90;;;;;;4964591;28;20036;-72
2023/10/15 01:07:21;;;;;;;;;;;14.00;99.90;;;;;;4963450;28;19914;-71
2023/10/15 01:09:46;;;;;;;;;;;14.00;99.90;;;;;;4964287;28;20009;-72
2023/10/15 01:12:20;;;;;;;;;;;14.00;99.90;;;;;;4960208;28;19940;-72
2023/10/15 01:14:45;;;;;;;;;;;14.00;99.90;;;;;;4967271;28;20353;-72
2023/10/15 01:17:11;;;;;;;;;;;14.00;99.90;;;;;;4963975;28;19910;-72
2023/10/15 01:19:37;;;;;;;;;;;14.00;99.90;;;;;;4965136;28;19910;-71
2023/10/15 01:22:03;;;;;;;;;;;14.00;99.90;;;;;;4965459;28;19914;-71
2023/10/15 01:24:33;;;;;;;;;;;14.00;99.90;;;;;;4966481;28;20355;-71
2023/10/15 01:27:09;;;;;;;;;;;14.00;99.90;;;;;;4956651;28;19918;-71
2023/10/15 01:29:38;;;;;;;;;;;14.00;99.90;;;;;;4963559;28;19925;-72
2023/10/15 01:32:13;;;;;;;;;;;13.90;99.90;;;;;;4958759;28;20429;-72
2023/10/15 01:34:44;;;;;;;;;;;13.90;99.90;;;;;;4968264;28;19915;-72
2023/10/15 01:39:49;;;;;;;;;;;13.90;99.90;;;;;;4963191;28;19957;-71
2023/10/15 01:42:40;;;;;;;;;;;14.00;99.90;;;;;;4966174;28;20323;-71
2023/10/15 01:50:23;;;;;;;;;;;13.80;99.90;;;;;;4965235;28;19922;-71
2023/10/15 01:53:00;;;;;;;;;;;13.80;99.90;;;;;;4964228;28;19910;-72
2023/10/15 01:55:29;;;;;;;;;;;13.80;99.90;;;;;;4960513;28;19917;-72
2023/10/15 01:57:55;;;;;;;;;;;13.80;99.90;;;;;;4963800;28;19918;-71
2023/10/15 02:03:06;;;;;;;;;;;13.80;99.90;;;;;;4965487;28;19941;-72
2023/10/15 02:05:41;;;;;;;;;;;13.70;99.90;;;;;;4964569;28;20322;-71
2023/10/15 02:08:07;;;;;;;;;;;13.70;99.90;;;;;;4960635;28;19914;-71
2023/10/15 02:10:35;;;;;;;;;;;13.60;99.90;;;;;;4962314;28;19918;-72
2023/10/15 02:13:04;;;;;;;;;;;13.50;99.90;;;;;;4967363;28;19914;-72
2023/10/15 02:15:33;;;;;;;;;;;13.50;99.90;;;;;;4958104;28;19921;-71
2023/10/15 02:17:59;;;;;;;;;;;13.50;99.90;;;;;;4962772;28;19945;-70
2023/10/15 02:23:27;;;;;;;;;;;13.60;99.90;;;;;;4917143;29;19978;-71
2023/10/15 02:25:57;;;;;;;;;;;13.60;99.90;;;;;;4955567;28;19918;-71
2023/10/15 02:28:25;;;;;;;;;;;13.60;99.90;;;;;;4960068;28;19918;-71
2023/10/15 02:30:58;;;;;;;;;;;13.60;99.90;;;;;;4966884;28;19918;-71
2023/10/15 02:33:25;;;;;;;;;;;13.60;99.90;;;;;;4965114;28;19921;-71
2023/10/15 02:35:54;;;;;;;;;;;13.70;99.90;;;;;;4962726;28;20382;-71
2023/10/15 02:38:25;;;;;;;;;;;13.70;99.90;;;;;;4967811;28;19925;-71
2023/10/15 02:41:03;;;;;;;;;;;13.70;99.90;;;;;;4962074;28;20314;-71
2023/10/15 02:43:29;;;;;;;;;;;13.70;99.90;;;;;;4961446;28;20285;-71
2023/10/15 02:46:00;;;;;;;;;;;13.70;99.90;;;;;;4961844;28;19922;-71
2023/10/15 02:48:26;;;;;;;;;;;13.50;99.90;;;;;;4962869;28;19918;-71
2023/10/15 02:51:07;;;;;;;;;;;13.60;99.90;;;;;;4964413;28;19918;-71
2023/10/15 02:53:40;;;;;;;;;;;13.60;99.90;;;;;;4962714;28;19917;-71
2023/10/15 02:56:11;;;;;;;;;;;13.60;99.90;;;;;;4959604;28;20359;-71
2023/10/15 02:58:38;;;;;;;;;;;13.60;99.90;;;;;;4963921;28;19910;-71
2023/10/15 03:01:17;;;;;;;;;;;13.50;99.90;;;;;;4964716;28;19917;-71
2023/10/15 03:03:48;;;;;;;;;;;13.40;99.90;;;;;;4963064;28;20570;-71
2023/10/15 03:06:18;;;;;;;;;;;13.30;99.90;;;;;;4945238;28;19917;-71
2023/10/15 03:08:45;;;;;;;;;;;13.20;99.90;;;;;;4956615;28;20361;-71
2023/10/15 03:11:14;;;;;;;;;;;13.20;99.90;;;;;;4961422;28;19914;-71
2023/10/15 03:13:55;;;;;;;;;;;13.20;99.90;;;;;;4962481;28;19917;-71
2023/10/15 03:16:22;;;;;;;;;;;13.20;99.90;;;;;;4963286;28;20486;-71
2023/10/15 03:18:48;;;;;;;;;;;13.20;99.90;;;;;;4961140;28;19914;-71
2023/10/15 03:21:24;;;;;;;;;;;13.20;99.90;;;;;;4963637;28;20247;-71
2023/10/15 03:23:56;;;;;;;;;;;13.10;99.90;;;;;;4956899;28;19918;-71
2023/10/15 03:26:35;;;;;;;;;;;13.00;99.90;;;;;;4966291;28;20521;-72
2023/10/15 03:29:09;;;;;;;;;;;13.00;99.90;;;;;;4962332;28;19918;-72
2023/10/15 03:31:37;;;;;;;;;;;12.80;99.90;;;;;;4959940;28;19951;-71
2023/10/15 03:36:42;;;;;;;;;;;12.70;99.90;;;;;;4967327;28;19937;-71
2023/10/15 03:39:14;;;;;;;;;;;12.60;99.90;;;;;;4965720;28;20028;-71
2023/10/15 03:41:40;;;;;;;;;;;12.60;99.90;;;;;;4962192;28;19990;-71
2023/10/15 03:44:05;;;;;;;;;;;12.50;99.90;;;;;;4965123;28;19922;-71
2023/10/15 03:46:34;;;;;;;;;;;12.50;99.90;;;;;;4963034;28;19918;-71
2023/10/15 03:48:59;;;;;;;;;;;12.30;99.90;;;;;;4964714;28;20045;-71
2023/10/15 03:51:27;;;;;;;;;;;12.30;99.90;;;;;;4966021;28;19997;-71
2023/10/15 03:53:52;;;;;;;;;;;12.30;99.90;;;;;;4964729;28;19941;-72
2023/10/15 03:56:19;;;;;;;;;;;12.20;99.90;;;;;;4965571;28;19918;-71
2023/10/15 03:58:45;;;;;;;;;;;12.20;99.90;;;;;;4967412;28;19914;-71
2023/10/15 04:01:17;;;;;;;;;;;12.00;99.90;;;;;;4967364;28;19910;-71
2023/10/15 04:03:43;;;;;;;;;;;11.90;99.90;;;;;;4964524;28;19914;-71
2023/10/15 04:06:09;;;;;;;;;;;11.80;99.90;;;;;;4965051;28;19972;-71
2023/10/15 04:08:37;;;;;;;;;;;11.80;99.90;;;;;;4961786;28;19937;-71
2023/10/15 04:11:03;;;;;;;;;;;11.80;99.90;;;;;;4965455;28;19918;-72
2023/10/15 04:13:28;;;;;;;;;;;11.90;99.90;;;;;;4948622;28;20381;-71
2023/10/15 04:15:55;;;;;;;;;;;11.90;99.90;;;;;;4965725;28;19921;-71
2023/10/15 04:18:23;;;;;;;;;;;11.90;99.90;;;;;;4963956;28;20348;-71
2023/10/15 04:20:49;;;;;;;;;;;11.80;99.90;;;;;;4945528;28;19910;-71
2023/10/15 04:23:30;;;;;;;;;;;11.80;99.90;;;;;;4967577;28;20218;-71
2023/10/15 04:25:57;;;;;;;;;;;11.70;99.90;;;;;;4968221;28;19949;-71
2023/10/15 04:28:25;;;;;;;;;;;11.60;99.90;;;;;;4967186;28;19940;-72
2023/10/15 04:30:51;;;;;;;;;;;11.70;99.90;;;;;;4969260;28;20404;-70
2023/10/15 04:33:20;;;;;;;;;;;11.70;99.90;;;;;;4962562;28;19917;-71
2023/10/15 04:35:49;;;;;;;;;;;11.70;99.90;;;;;;4962340;28;20021;-71
2023/10/15 04:38:30;;;;;;;;;;;11.50;99.90;;;;;;4963745;28;19914;-70
2023/10/15 04:43:27;;;;;;;;;;;11.50;99.90;;;;;;4968422;28;19914;-71
2023/10/15 04:45:56;;;;;;;;;;;11.50;99.90;;;;;;4959247;28;19923;-71
2023/10/15 04:48:26;;;;;;;;;;;11.40;99.90;;;;;;4962686;28;19935;-71
2023/10/15 04:50:52;;;;;;;;;;;11.40;99.90;;;;;;4966799;28;19916;-71
2023/10/15 04:55:47;;;;;;;;;;;11.40;99.90;;;;;;4966156;28;19945;-71
2023/10/15 04:58:13;;;;;;;;;;;11.30;99.90;;;;;;4965613;28;20937;-70
2023/10/15 05:00:39;;;;;;;;;;;11.30;99.90;;;;;;4964205;28;20009;-67
2023/10/15 05:03:05;;;;;;;;;;;11.30;99.90;;;;;;4960378;28;20286;-68
2023/10/15 05:05:31;;;;;;;;;;;11.30;99.90;;;;;;4965316;28;19914;-68
2023/10/15 05:07:59;;;;;;;;;;;11.30;99.90;;;;;;4959951;28;19914;-67
2023/10/15 05:10:32;;;;;;;;;;;11.30;99.90;;;;;;4963255;28;19918;-69
2023/10/15 05:12:59;;;;;;;;;;;11.30;99.90;;;;;;4959148;28;20014;-69
2023/10/15 05:15:27;;;;;;;;;;;11.30;99.90;;;;;;4961314;28;19910;-67
2023/10/15 05:17:53;;;;;;;;;;;11.30;99.90;;;;;;4963681;28;19921;-68
2023/10/15 05:20:20;;;;;;;;;;;11.30;99.90;;;;;;4966089;28;19910;-67
2023/10/15 05:22:46;;;;;;;;;;;11.30;99.90;;;;;;4956072;28;20776;-68
2023/10/15 05:25:18;;;;;;;;;;;11.30;99.90;;;;;;4946183;28;19937;-68
2023/10/15 05:27:52;;;;;;;;;;;11.30;99.90;;;;;;4963798;28;20357;-68
2023/10/15 05:30:18;;;;;;;;;;;11.30;99.90;;;;;;4963589;28;19949;-70
2023/10/15 05:32:44;;;;;;;;;;;11.30;99.90;;;;;;4963828;28;19997;-71
2023/10/15 05:35:10;;;;;;;;;;;11.30;99.90;;;;;;4965205;28;19918;-71
2023/10/15 05:37:42;;;;;;;;;;;11.30;99.90;;;;;;4965074;28;19921;-71
2023/10/15 05:40:08;;;;;;;;;;;11.30;99.90;;;;;;4960932;28;20362;-71
2023/10/15 05:42:34;;;;;;;;;;;11.30;99.90;;;;;;4963695;28;19929;-71
2023/10/15 05:45:00;;;;;;;;;;;11.40;99.90;;;;;;4966344;28;19925;-71
2023/10/15 05:47:26;;;;;;;;;;;11.40;99.90;;;;;;4962861;28;20584;-71
2023/10/15 05:49:53;;;;;;;;;;;11.90;99.90;;;;;;4963020;28;19958;-71
2023/10/15 05:52:19;;;;;;;;;;;12.60;99.90;;;;;;4965365;28;19909;-71
2023/10/15 05:54:46;;;;;;;;;;;13.50;99.90;;;;;;4963070;28;19914;-71
2023/10/15 05:57:13;;;;;;;;;;;14.20;99.90;;;;;;4961395;28;20297;-70
2023/10/15 05:59:39;;;;;;;;;;;14.80;99.90;;;;;;4964651;28;19953;-71
2023/10/15 06:02:04;;;;;;;;;;;14.90;99.90;;;;;;4960722;28;19910;-71
2023/10/15 06:04:30;;;;;;;;;;;15.80;99.90;;;;;;4963822;28;19914;-71
2023/10/15 06:06:56;;;;;;;;;;;16.70;98.70;;;;;;4964573;28;20297;-72
2023/10/15 06:09:23;;;;;;;;;;;17.40;97.60;;;;;;4967850;28;19922;-72
2023/10/15 06:11:49;;;;;;;;;;;18.10;95.60;;;;;;4962747;28;20369;-71
2023/10/15 06:14:15;;;;;;;;;;;18.80;94.10;;;;;;4967156;28;20239;-72
2023/10/15 06:16:41;;;;;;;;;;;19.00;92.80;;;;;;4960239;28;19914;-72
2023/10/15 06:19:09;;;;;;;;;;;19.80;92.00;;;;;;4962635;28;19910;-72
2023/10/15 06:21:34;;;;;;;;;;;20.60;90.10;;;;;;4966124;28;20601;-72
2023/10/15 06:24:00;;;;;;;;;;;21.30;86.40;;;;;;4959592;28;20000;-72
2023/10/15 06:26:26;;;;;;;;;;;21.70;81.90;;;;;;4965261;28;19910;-72
2023/10/15 06:28:51;;;;;;;;;;;22.10;81.00;;;;;;4964732;28;20603;-72
2023/10/15 06:31:18;;;;;;;;;;;22.60;77.30;;;;;;4962836;28;19914;-72
2023/10/15 06:33:44;;;;;;;;;;;22.90;76.10;;;;;;4964275;28;20389;-72
2023/10/15 06:36:09;;;;;;;;;;;22.40;75.70;;;;;;4960043;28;19917;-72
2023/10/15 06:38:35;;;;;;;;;;;22.40;75.80;;;;;;4966173;28;19914;-72
2023/10/15 06:41:01;;;;;;;;;;;22.30;75.00;;;;;;4959265;28;20035;-72
2023/10/15 06:43:27;;;;;;;;;;;21.80;75.40;;;;;;4963755;28;20538;-72
2023/10/15 06:45:53;;;;;;;;;;;20.40;76.20;;;;;;4963568;28;20317;-72
2023/10/15 06:48:22;;;;;;;;;;;20.10;77.90;;;;;;4959830;28;19941;-72
2023/10/15 06:50:48;;;;;;;;;;;19.20;80.50;;;;;;4959481;28;20767;-72
2023/10/15 06:53:13;;;;;;;;;;;18.50;81.20;;;;;;4963089;28;19921;-72
2023/10/15 06:55:42;;;;;;;;;;;18.20;82.60;;;;;;4962836;28;19910;-72
2023/10/15 06:58:08;;;;;;;;;;;18.00;81.60;;;;;;4962558;28;19910;-72
2023/10/15 07:00:36;;;;;;;;;;;17.80;83.20;;;;;;4965341;28;19910;-71
2023/10/15 07:03:01;;;;;;;;;;;19.30;81.00;;;;;;4963722;28;19910;-72
2023/10/15 07:05:28;;;;;;;;;;;21.50;77.70;;;;;;4969555;28;19914;-73
2023/10/15 07:07:56;;;;;;;;;;;23.30;73.20;;;;;;4963275;28;19957;-72
2023/10/15 07:10:22;;;;;;;;;;;24.10;70.80;;;;;;4969274;28;19933;-73
2023/10/15 07:12:50;;;;;;;;;;;24.00;70.20;;;;;;4964270;28;20869;-72
2023/10/15 07:15:16;;;;;;;;;;;24.30;68.60;;;;;;4955463;28;19913;-73
2023/10/15 07:17:43;;;;;;;;;;;25.10;67.60;;;;;;4962739;28;19969;-73
2023/10/15 07:20:18;;;;;;;;;;;26.20;64.70;;;;;;4965657;28;20380;-73
2023/10/15 07:22:44;;;;;;;;;;;26.40;63.50;;;;;;4963081;28;19918;-73
2023/10/15 07:25:10;;;;;;;;;;;25.30;63.50;;;;;;4971392;28;19941;-73
2023/10/15 07:27:37;;;;;;;;;;;25.80;63.40;;;;;;4965126;28;19972;-74
2023/10/15 07:30:03;;;;;;;;;;;26.40;62.40;;;;;;4961275;28;20500;-74
2023/10/15 07:32:29;;;;;;;;;;;27.80;60.10;;;;;;4966968;28;19914;-73
2023/10/15 07:34:54;;;;;;;;;;;28.30;59.00;;;;;;4964560;28;20505;-73
2023/10/15 07:37:20;;;;;;;;;;;28.60;57.30;;;;;;4966687;28;19918;-73
2023/10/15 07:39:45;;;;;;;;;;;29.10;56.10;;;;;;4971138;28;19996;-73
2023/10/15 07:42:11;;;;;;;;;;;27.90;55.70;;;;;;4947767;28;19917;-74
2023/10/15 07:44:36;;;;;;;;;;;28.10;55.80;;;;;;4967552;28;19968;-73
2023/10/15 07:47:04;;;;;;;;;;;28.20;55.50;;;;;;4968972;28;20346;-73
2023/10/15 07:49:31;;;;;;;;;;;28.50;54.60;;;;;;4966189;28;20530;-73
2023/10/15 07:51:58;;;;;;;;;;;29.00;54.70;;;;;;4964455;28;19960;-73
2023/10/15 07:54:24;;;;;;;;;;;28.80;53.60;;;;;;4965324;28;19920;-73
2023/10/15 07:56:50;;;;;;;;;;;28.10;54.00;;;;;;4965814;28;19914;-73
2023/10/15 07:59:15;;;;;;;;;;;28.20;53.20;;;;;;4962586;28;19937;-72
2023/10/15 08:01:41;;;;;;;;;;;27.80;54.40;;;;;;4966440;28;19914;-73
2023/10/15 08:04:07;;;;;;;;;;;27.80;54.30;;;;;;4964972;28;20464;-73
2023/10/15 08:06:35;;;;;;;;;;;28.10;53.80;;;;;;4965360;28;19911;-73
2023/10/15 08:09:01;;;;;;;;;;;26.60;54.80;;;;;;4967426;28;19928;-73
2023/10/15 08:11:26;;;;;;;;;;;26.20;55.50;;;;;;4961558;28;19910;-73
2023/10/15 08:13:52;;;;;;;;;;;26.40;55.10;;;;;;4964814;28;20278;-73
2023/10/15 08:16:18;;;;;;;;;;;27.40;54.50;;;;;;4962206;28;19914;-73
2023/10/15 08:18:44;;;;;;;;;;;27.80;54.80;;;;;;4965106;28;20679;-73
2023/10/15 08:21:11;;;;;;;;;;;27.50;54.00;;;;;;4968301;28;19917;-73
2023/10/15 08:23:38;;;;;;;;;;;26.30;54.70;;;;;;4961315;28;19914;-73
2023/10/15 08:26:05;;;;;;;;;;;24.70;56.90;;;;;;4966555;28;19951;-72
2023/10/15 08:28:31;;;;;;;;;;;23.00;58.80;;;;;;4963682;28;19918;-73
2023/10/15 08:30:57;;;;;;;;;;;21.10;61.40;;;;;;4959827;28;19911;-73
2023/10/15 08:33:23;;;;;;;;;;;19.80;64.60;;;;;;4963780;28;20317;-72
2023/10/15 08:35:49;;;;;;;;;;;18.50;68.00;;;;;;4961154;28;19921;-72
2023/10/15 08:38:15;;;;;;;;;;;17.90;69.50;;;;;;4964157;28;19956;-72
2023/10/15 08:40:44;;;;;;;;;;;17.30;70.90;;;;;;4964875;28;19956;-71
2023/10/15 08:43:17;;;;;;;;;;;16.70;73.10;;;;;;4964798;28;20397;-71
2023/10/15 08:45:43;;;;;;;;;;;16.10;74.40;;;;;;4966230;28;19926;-71
2023/10/15 08:48:12;;;;;;;;;;;15.80;76.30;;;;;;4963690;28;19965;-71
2023/10/15 08:50:38;;;;;;;;;;;15.80;77.40;;;;;;4963619;28;19925;-71
2023/10/15 08:53:09;;;;;;;;;;;16.00;78.00;;;;;;4964258;28;19906;-71
2023/10/15 08:55:35;;;;;;;;;;;16.10;77.40;;;;;;4963567;28;19910;-71
2023/10/15 08:58:01;;;;;;;;;;;15.80;78.00;;;;;;4964852;28;19917;-71
2023/10/15 09:00:28;;;;;;;;;;;15.60;79.90;;;;;;4962703;28;19973;-70
2023/10/15 09:02:57;;;;;;;;;;;15.10;81.50;;;;;;4961713;28;19934;-71
2023/10/15 09:05:23;;;;;;;;;;;14.70;83.00;;;;;;4963144;28;19953;-72
2023/10/15 09:07:50;;;;;;;;;;;14.50;85.20;;;;;;4961987;28;20637;-71
2023/10/15 09:10:16;;;;;;;;;;;14.40;86.50;;;;;;4964861;28;19925;-71
2023/10/15 09:12:42;;;;;;;;;;;14.00;88.30;;;;;;4963008;28;20331;-72
2023/10/15 09:15:17;;;;;;;;;;;13.90;89.30;;;;;;4964118;28;20005;-71
2023/10/15 09:17:49;;;;;;;;;;;13.70;90.50;;;;;;4963534;28;19914;-72
2023/10/15 09:20:17;;;;;;;;;;;13.60;91.10;;;;;;4965961;28;19953;-71
2023/10/15 09:22:44;;;;;;;;;;;13.60;91.60;;;;;;4965656;28;20037;-71
2023/10/15 09:25:14;;;;;;;;;;;13.50;92.00;;;;;;4961390;28;19910;-71
2023/10/15 09:27:45;;;;;;;;;;;13.50;92.30;;;;;;4963858;28;19918;-71
2023/10/15 09:30:18;;;;;;;;;;;13.40;92.10;;;;;;4964826;28;19917;-71
2023/10/15 09:32:45;;;;;;;;;;;13.30;92.40;;;;;;4958569;28;19917;-72
2023/10/15 09:35:13;;;;;;;;;;;13.30;92.90;;;;;;4965357;28;19914;-71
2023/10/15 09:37:39;;;;;;;;;;;13.40;93.30;;;;;;4964962;28;20349;-71
2023/10/15 09:40:09;;;;;;;;;;;13.90;92.30;;;;;;4962153;28;20030;-71
2023/10/15 09:42:38;;;;;;;;;;;14.30;92.00;;;;;;4963837;28;20351;-67
2023/10/15 09:45:05;;;;;;;;;;;14.80;91.70;;;;;;4957784;28;20543;-66
2023/10/15 09:47:32;;;;;;;;;;;15.50;90.70;;;;;;4962982;28;19914;-65
2023/10/15 09:49:59;;;;;;;;;;;15.90;89.40;;;;;;4957320;28;19914;-64
2023/10/15 09:52:26;;;;;;;;;;;16.60;87.50;;;;;;4962928;28;20816;-69
2023/10/15 09:54:55;;;;;;;;;;;16.90;86.50;;;;;;4959992;28;19997;-70
2023/10/15 09:57:21;;;;;;;;;;;16.70;84.90;;;;;;4962692;28;19997;-70
2023/10/15 09:59:53;;;;;;;;;;;16.70;84.90;;;;;;4964198;28;19910;-70
2023/10/15 10:02:32;;;;;;;;;;;16.80;83.50;;;;;;4959899;28;19949;-69
2023/10/15 10:05:44;;;;;;;;;;;17.00;84.10;;;;;;4963817;28;19915;-69
2023/10/15 10:08:21;;;;;;;;;;;16.80;84.30;;;;;;4927385;28;19910;-70
2023/10/15 10:10:55;;;;;;;;;;;16.90;83.70;;;;;;4966929;28;20001;-70
2023/10/15 10:13:24;;;;;;;;;;;17.20;82.40;;;;;;4960118;28;20361;-69
2023/10/15 10:15:57;;;;;;;;;;;17.10;81.10;;;;;;4940396;28;19922;-70
2023/10/15 10:18:24;;;;;;;;;;;17.10;79.20;;;;;;4958452;28;20373;-69
2023/10/15 10:20:50;;;;;;;;;;;17.30;79.30;;;;;;4959837;28;19930;-70
2023/10/15 10:23:16;;;;;;;;;;;17.30;78.20;;;;;;4944406;28;19976;-70
2023/10/15 10:25:42;;;;;;;;;;;17.30;78.40;;;;;;4961081;28;19926;-70
2023/10/15 10:28:10;;;;;;;;;;;16.70;79.10;;;;;;4958533;28;19921;-70
2023/10/15 10:30:36;;;;;;;;;;;16.50;80.00;;;;;;4964960;28;19922;-70
2023/10/15 10:33:02;;;;;;;;;;;16.30;80.60;;;;;;4958236;28;20401;-70
2023/10/15 10:35:28;;;;;;;;;;;16.40;80.90;;;;;;4965593;28;20009;-62
2023/10/15 10:38:10;;;;;;;;;;;16.40;81.40;;;;;;4964306;28;19921;-70
2023/10/15 10:40:48;;;;;;;;;;;16.60;80.50;;;;;;4967785;28;20016;-69
2023/10/15 10:43:18;;;;;;;;;;;16.70;79.80;;;;;;4965141;28;19926;-69
2023/10/15 10:45:56;;;;;;;;;;;16.40;80.40;;;;;;4953347;28;19926;-69
2023/10/15 10:48:33;;;;;;;;;;;16.40;80.20;;;;;;4951092;28;19918;-70
2023/10/15 10:51:08;;;;;;;;;;;16.50;80.60;;;;;;4940547;28;19918;-70
2023/10/15 10:53:35;;;;;;;;;;;16.60;80.80;;;;;;4951234;28;19910;-69
2023/10/15 10:56:03;;;;;;;;;;;16.70;80.90;;;;;;4957359;28;19918;-70
2023/10/15 10:58:29;;;;;;;;;;;16.70;80.30;;;;;;4952136;28;19918;-71
2023/10/15 11:00:59;;;;;;;;;;;16.80;81.10;;;;;;4958548;28;19929;-71
2023/10/15 11:03:25;;;;;;;;;;;16.80;80.10;;;;;;4961762;28;19914;-71
2023/10/15 11:05:52;;;;;;;;;;;17.00;80.30;;;;;;4963746;28;19925;-70
2023/10/15 11:08:18;;;;;;;;;;;17.00;80.40;;;;;;4960412;28;19914;-70
2023/10/15 11:10:45;;;;;;;;;;;16.70;80.50;;;;;;4961225;28;19925;-71
2023/10/15 11:13:15;;;;;;;;;;;16.50;81.60;;;;;;4960048;28;19980;-71
2023/10/15 11:15:45;;;;;;;;;;;16.30;82.30;;;;;;4964970;28;19956;-70
2023/10/15 11:18:11;;;;;;;;;;;16.10;80.40;;;;;;4962115;28;20013;-68
2023/10/15 11:20:37;;;;;;;;;;;15.80;82.50;;;;;;4962292;28;20263;-67
2023/10/15 11:23:05;;;;;;;;;;;15.80;82.50;;;;;;4961813;28;19973;-70
2023/10/15 11:25:31;;;;;;;;;;;15.80;80.70;;;;;;4963190;28;19921;-70
2023/10/15 11:28:00;;;;;;;;;;;15.60;80.80;;;;;;4957149;28;19910;-70
2023/10/15 11:30:26;;;;;;;;;;;15.60;80.60;;;;;;4964716;28;19914;-71
2023/10/15 11:32:52;;;;;;;;;;;15.60;80.40;;;;;;4961052;28;19964;-71
2023/10/15 11:35:17;;;;;;;;;;;15.60;79.90;;;;;;4959945;28;19918;-71
2023/10/15 11:37:44;;;;;;;;;;;15.50;80.50;;;;;;4964032;28;21623;-71
2023/10/15 11:40:11;;;;;;;;;;;15.50;80.10;;;;;;4963770;28;19973;-71
2023/10/15 11:42:54;;;;;;;;;;;15.50;80.60;;;;;;4958841;28;20000;-71
2023/10/15 11:45:25;;;;;;;;;;;15.50;80.90;;;;;;4964145;28;19924;-69
2023/10/15 11:47:55;;;;;;;;;;;15.60;80.60;;;;;;4956974;28;19945;-71
2023/10/15 11:50:22;;;;;;;;;;;15.60;80.70;;;;;;4964321;28;19922;-71
2023/10/15 11:52:49;;;;;;;;;;;15.60;81.00;;;;;;4963787;28;19910;-70
2023/10/15 11:55:19;;;;;;;;;;;15.60;81.30;;;;;;4962949;28;20354;-72
2023/10/15 11:57:54;;;;;;;;;;;15.70;81.50;;;;;;4968007;28;19992;-72
2023/10/15 12:00:31;;;;;;;;;;;15.80;80.90;;;;;;4965769;28;19920;-71
2023/10/15 12:03:00;;;;;;;;;;;15.90;81.20;;;;;;4966244;28;19925;-70
2023/10/15 12:05:31;;;;;;;;;;;16.10;81.00;;;;;;4965207;28;19914;-71
2023/10/15 12:07:59;;;;;;;;;;;16.40;80.00;;;;;;4957926;28;19933;-71
2023/10/15 12:10:24;;;;;;;;;;;16.60;79.00;;;;;;4969587;28;20283;-71
2023/10/15 12:12:50;;;;;;;;;;;16.70;78.40;;;;;;4958584;28;19996;-71
2023/10/15 12:15:16;;;;;;;;;;;16.70;78.10;;;;;;4967081;28;20384;-72
2023/10/15 12:17:41;;;;;;;;;;;16.70;78.50;;;;;;4965508;28;19914;-71
2023/10/15 12:20:07;;;;;;;;;;;16.80;78.30;;;;;;4961366;28;20421;-70
2023/10/15 12:22:33;;;;;;;;;;;16.60;78.60;;;;;;4962932;28;19914;-70
2023/10/15 12:25:00;;;;;;;;;;;16.40;79.60;;;;;;4965314;28;19958;-70
2023/10/15 12:27:28;;;;;;;;;;;16.50;78.50;;;;;;4962720;28;19953;-70
2023/10/15 12:29:54;;;;;;;;;;;16.50;78.40;;;;;;4964057;28;20000;-70
2023/10/15 12:32:20;;;;;;;;;;;16.20;78.80;;;;;;4964866;28;20005;-70
2023/10/15 12:34:46;;;;;;;;;;;16.00;79.10;;;;;;4965082;28;20431;-70
2023/10/15 12:37:13;;;;;;;;;;;16.00;79.60;;;;;;4966018;28;20052;-70
2023/10/15 12:39:44;;;;;;;;;;;16.10;78.00;;;;;;4963764;28;19914;-70
2023/10/15 12:42:11;;;;;;;;;;;16.10;78.70;;;;;;4964969;28;19921;-71
2023/10/15 12:44:40;;;;;;;;;;;16.10;78.50;;;;;;4964940;28;20273;-71
2023/10/15 12:47:08;;;;;;;;;;;16.10;78.70;;;;;;4960241;28;19915;-71
2023/10/15 12:49:35;;;;;;;;;;;16.20;78.50;;;;;;4963947;28;19918;-71
2023/10/15 12:52:03;;;;;;;;;;;16.40;78.20;;;;;;4962340;28;19917;-70
2023/10/15 12:54:29;;;;;;;;;;;16.10;77.20;;;;;;4959459;28;19948;-71
2023/10/15 12:56:58;;;;;;;;;;;16.10;76.70;;;;;;4963828;28;19915;-71
2023/10/15 12:59:24;;;;;;;;;;;16.00;76.20;;;;;;4959623;28;20370;-71
2023/10/15 13:01:50;;;;;;;;;;;16.00;76.80;;;;;;4959939;28;19925;-70
2023/10/15 13:04:16;;;;;;;;;;;15.90;76.40;;;;;;4945423;28;19949;-70
2023/10/15 13:06:42;;;;;;;;;;;15.90;77.20;;;;;;4945567;28;19926;-71
2023/10/15 13:09:08;;;;;;;;;;;15.90;76.80;;;;;;4967802;28;19933;-70
2023/10/15 13:11:37;;;;;;;;;;;15.90;76.50;;;;;;4967339;28;20016;-71
2023/10/15 13:14:03;;;;;;;;;;;16.00;77.20;;;;;;4943319;28;19921;-70
2023/10/15 13:16:32;;;;;;;;;;;15.70;77.20;;;;;;4962811;28;20290;-70
2023/10/15 13:18:57;;;;;;;;;;;15.60;77.70;;;;;;4960611;28;19926;-71
2023/10/15 13:21:23;;;;;;;;;;;15.50;77.30;;;;;;4960173;28;19914;-70
2023/10/15 13:23:49;;;;;;;;;;;15.40;77.00;;;;;;4964480;28;20362;-70
2023/10/15 13:26:14;;;;;;;;;;;15.30;78.40;;;;;;4962872;28;19920;-71
2023/10/15 13:28:40;;;;;;;;;;;15.30;78.70;;;;;;4961360;28;19916;-70
2023/10/15 13:31:06;;;;;;;;;;;15.40;77.70;;;;;;4963672;28;19926;-70
2023/10/15 13:33:33;;;;;;;;;;;15.50;78.00;;;;;;4965813;28;20012;-70
2023/10/15 13:35:59;;;;;;;;;;;15.60;77.60;;;;;;4966628;28;19921;-70
2023/10/15 13:38:28;;;;;;;;;;;15.70;77.80;;;;;;4959110;28;19930;-70
2023/10/15 13:40:54;;;;;;;;;;;15.80;76.20;;;;;;4969240;28;19910;-71
2023/10/15 13:43:22;;;;;;;;;;;15.80;76.80;;;;;;4969223;28;20279;-70
2023/10/15 13:45:48;;;;;;;;;;;15.70;76.80;;;;;;4965422;28;20005;-70
2023/10/15 13:48:14;;;;;;;;;;;15.60;77.00;;;;;;4964614;28;19929;-70
2023/10/15 13:50:40;;;;;;;;;;;15.10;77.80;;;;;;4962216;28;20212;-70
2023/10/15 13:53:05;;;;;;;;;;;15.00;78.30;;;;;;4965331;28;19914;-70
2023/10/15 13:55:32;;;;;;;;;;;14.90;77.00;;;;;;4965076;28;20438;-70
2023/10/15 13:57:58;;;;;;;;;;;14.90;79.70;;;;;;4961150;28;20009;-70
2023/10/15 14:00:27;;;;;;;;;;;15.00;78.70;;;;;;4963406;28;20485;-70
2023/10/15 14:02:54;;;;;;;;;;;15.00;79.20;;;;;;4961872;28;20020;-70
2023/10/15 14:05:20;;;;;;;;;;;14.90;78.90;;;;;;4963468;28;20037;-69
2023/10/15 14:07:47;;;;;;;;;;;14.90;79.30;;;;;;4964840;28;19914;-70
2023/10/15 14:10:15;;;;;;;;;;;14.90;78.70;;;;;;4949209;28;19922;-70
2023/10/15 14:12:41;;;;;;;;;;;14.60;79.00;;;;;;4965858;28;20241;-70
2023/10/15 14:15:13;;;;;;;;;;;14.50;79.10;;;;;;4959866;28;19977;-70
2023/10/15 14:17:44;;;;;;;;;;;14.50;79.30;;;;;;4963815;28;19910;-70
2023/10/15 14:20:14;;;;;;;;;;;14.50;79.60;;;;;;4962035;28;20377;-69
2023/10/15 14:22:44;;;;;;;;;;;14.40;80.10;;;;;;4954874;28;19914;-69
2023/10/15 14:25:10;;;;;;;;;;;14.40;80.40;;;;;;4959752;28;20389;-70
2023/10/15 14:27:36;;;;;;;;;;;14.40;80.40;;;;;;4959686;28;19925;-69
2023/10/15 14:30:07;;;;;;;;;;;14.30;82.10;;;;;;4964192;28;19925;-70
2023/10/15 14:32:36;;;;;;;;;;;14.30;82.70;;;;;;4957216;28;19953;-70
2023/10/15 14:35:04;;;;;;;;;;;14.30;83.00;;;;;;4963095;28;20293;-70
2023/10/15 14:37:31;;;;;;;;;;;14.30;84.30;;;;;;4957270;28;19984;-70
2023/10/15 14:39:57;;;;;;;;;;;14.30;87.00;;;;;;4962825;28;19921;-70
2023/10/15 14:42:23;;;;;;;;;;;14.20;88.90;;;;;;4951372;28;20428;-69